createdAt,value
2022-08-26T00:00:47.291Z,5.63
2022-08-26T00:01:49.397Z,5.35
2022-08-26T00:02:51.137Z,5.85
2022-08-26T00:03:52.889Z,5.72
2022-08-26T00:04:54.481Z,5.93
2022-08-26T00:05:56.099Z,5.82
2022-08-26T00:06:58.097Z,5.32
2022-08-26T00:08:00.014Z,6.22
2022-08-26T00:09:02.292Z,5.18
2022-08-26T00:10:05.765Z,6.25
2022-08-26T00:11:07.406Z,4.78
2022-08-26T00:12:12.350Z,5.47
2022-08-26T00:13:14.372Z,5.88
2022-08-26T00:14:16.827Z,6.13
2022-08-26T00:15:20.525Z,5.45
2022-08-26T00:16:23.804Z,6.45
2022-08-26T00:17:25.660Z,5.22
2022-08-26T00:18:28.501Z,5.55
2022-08-26T00:19:32.717Z,5.47
2022-08-26T00:20:35.519Z,5.53
2022-08-26T00:21:37.525Z,5.68
2022-08-26T00:22:40.483Z,5.90
2022-08-26T00:23:42.304Z,5.85
2022-08-26T00:24:47.922Z,6.50
2022-08-26T00:25:49.908Z,5.13
2022-08-26T00:26:51.739Z,5.85
2022-08-26T00:27:53.476Z,5.78
2022-08-26T00:28:55.072Z,5.28
2022-08-26T00:29:56.824Z,5.97
2022-08-26T00:30:59.560Z,5.57
2022-08-26T00:32:02.727Z,5.95
2022-08-26T00:33:06.415Z,5.60
2022-08-26T00:34:11.343Z,5.95
2022-08-26T00:35:14.293Z,5.60
2022-08-26T00:36:19.956Z,5.80
2022-08-26T00:37:22.161Z,5.47
2022-08-26T00:38:24.807Z,5.78
2022-08-26T00:39:26.412Z,6.40
2022-08-26T00:40:33.515Z,5.80
2022-08-26T00:41:38.225Z,5.55
2022-08-26T00:42:39.866Z,5.75
2022-08-26T00:43:48.117Z,6.45
2022-08-26T00:44:49.904Z,5.15
2022-08-26T00:46:33.464Z,6.32
2022-08-26T00:47:47.060Z,5.90
2022-08-26T00:48:53.636Z,5.22
2022-08-26T00:49:56.643Z,5.95
2022-08-26T00:51:22.542Z,6.32
2022-08-26T00:52:25.066Z,5.88
2022-08-26T00:53:30.591Z,5.43
2022-08-26T00:54:42.425Z,5.90
2022-08-26T00:55:45.013Z,5.88
2022-08-26T00:56:53.887Z,5.95
2022-08-26T00:57:56.127Z,5.97
2022-08-26T00:59:02.543Z,5.70
2022-08-26T01:00:12.146Z,5.68
2022-08-26T01:01:15.589Z,5.80
2022-08-26T01:02:20.990Z,5.22
2022-08-26T01:03:26.483Z,5.85
2022-08-26T01:04:29.191Z,6.25
2022-08-26T01:05:31.047Z,6.18
2022-08-26T01:06:32.689Z,5.82
2022-08-26T01:07:35.461Z,5.90
2022-08-26T01:08:37.079Z,6.22
2022-08-26T01:09:39.295Z,6.10
2022-08-26T01:10:42.295Z,6.00
2022-08-26T01:11:47.266Z,6.32
2022-08-26T01:13:05.713Z,5.38
2022-08-26T01:14:09.519Z,5.97
2022-08-26T01:15:20.376Z,5.43
2022-08-26T01:16:22.632Z,5.57
2022-08-26T01:17:24.281Z,5.97
2022-08-26T01:18:26.744Z,6.32
2022-08-26T01:19:48.913Z,5.32
2022-08-26T01:21:27.714Z,5.30
2022-08-26T01:22:50.390Z,6.18
2022-08-26T01:23:57.473Z,5.45
2022-08-26T01:25:03.588Z,5.20
2022-08-26T01:26:19.577Z,5.75
2022-08-26T01:27:22.037Z,4.90
2022-08-26T01:28:29.076Z,5.95
2022-08-26T01:29:33.792Z,6.10
2022-08-26T01:30:37.556Z,5.35
2022-08-26T01:31:45.134Z,5.80
2022-08-26T01:32:50.467Z,5.72
2022-08-26T01:34:15.271Z,6.22
2022-08-26T01:35:17.349Z,6.15
2022-08-26T01:36:19.908Z,5.82
2022-08-26T01:37:26.252Z,5.85
2022-08-26T01:38:27.936Z,5.60
2022-08-26T01:39:34.697Z,5.82
2022-08-26T01:40:39.008Z,5.93
2022-08-26T01:41:42.964Z,5.60
2022-08-26T01:42:46.881Z,5.60
2022-08-26T01:43:54.222Z,5.78
2022-08-26T01:45:18.809Z,5.40
2022-08-26T01:46:23.814Z,5.55
2022-08-26T01:47:30.084Z,5.22
2022-08-26T01:48:34.259Z,5.20
2022-08-26T01:49:37.819Z,5.20
2022-08-26T01:50:40.316Z,5.90
2022-08-26T01:51:44.381Z,6.20
2022-08-26T01:52:49.878Z,5.90
2022-08-26T01:53:56.353Z,6.47
2022-08-26T01:55:01.931Z,5.40
2022-08-26T01:56:05.351Z,5.82
2022-08-26T01:57:08.000Z,4.95
2022-08-26T01:58:20.515Z,5.43
2022-08-26T01:59:23.542Z,5.88
2022-08-26T02:00:26.042Z,5.15
2022-08-26T02:01:29.491Z,5.18
2022-08-26T02:02:31.994Z,5.43
2022-08-26T02:03:38.691Z,5.65
2022-08-26T02:04:51.126Z,5.97
2022-08-26T02:06:00.942Z,5.25
2022-08-26T02:07:06.393Z,5.47
2022-08-26T02:08:09.261Z,5.78
2022-08-26T02:09:11.672Z,5.70
2022-08-26T02:10:14.672Z,5.50
2022-08-26T02:11:18.277Z,4.90
2022-08-26T02:12:20.531Z,5.68
2022-08-26T02:13:25.450Z,4.93
2022-08-26T02:14:34.833Z,5.88
2022-08-26T02:15:37.963Z,5.72
2022-08-26T02:16:45.664Z,5.88
2022-08-26T02:17:47.909Z,5.97
2022-08-26T02:18:55.891Z,5.93
2022-08-26T02:19:58.207Z,5.68
2022-08-26T02:21:00.375Z,5.60
2022-08-26T02:22:06.408Z,6.20
2022-08-26T02:23:08.898Z,5.97
2022-08-26T02:24:17.789Z,6.05
2022-08-26T02:25:35.372Z,6.00
2022-08-26T02:26:37.167Z,6.15
2022-08-26T02:27:40.952Z,5.75
2022-08-26T02:28:52.389Z,6.82
2022-08-26T02:30:03.127Z,6.55
2022-08-26T02:31:05.185Z,6.07
2022-08-26T02:32:11.045Z,6.00
2022-08-26T02:33:13.711Z,5.90
2022-08-26T02:34:31.246Z,5.53
2022-08-26T02:35:34.952Z,6.38
2022-08-26T02:36:36.618Z,6.88
2022-08-26T02:37:38.650Z,6.80
2022-08-26T02:38:43.581Z,7.22
2022-08-26T02:39:48.105Z,6.07
2022-08-26T02:40:49.812Z,6.93
2022-08-26T02:41:53.085Z,7.18
2022-08-26T02:42:55.986Z,6.75
2022-08-26T02:43:58.808Z,6.50
2022-08-26T02:45:00.604Z,5.68
2022-08-26T02:46:02.624Z,6.30
2022-08-26T02:47:04.504Z,5.82
2022-08-26T02:48:18.834Z,6.55
2022-08-26T02:49:21.105Z,7.07
2022-08-26T02:50:23.428Z,5.65
2022-08-26T02:51:27.922Z,6.63
2022-08-26T02:52:29.552Z,5.90
2022-08-26T02:53:32.073Z,6.65
2022-08-26T02:54:37.468Z,6.25
2022-08-26T02:55:41.730Z,6.32
2022-08-26T02:56:44.547Z,6.63
2022-08-26T02:57:46.796Z,6.07
2022-08-26T02:58:48.765Z,6.00
2022-08-26T02:59:50.452Z,6.55
2022-08-26T03:00:53.675Z,6.78
2022-08-26T03:01:56.429Z,5.85
2022-08-26T03:02:59.189Z,6.47
2022-08-26T03:04:04.651Z,6.40
2022-08-26T03:05:07.868Z,6.30
2022-08-26T03:06:09.454Z,6.35
2022-08-26T03:07:11.038Z,6.18
2022-08-26T03:08:12.654Z,6.50
2022-08-26T03:09:18.447Z,6.65
2022-08-26T03:10:21.174Z,6.40
2022-08-26T03:11:23.766Z,6.25
2022-08-26T03:12:26.630Z,5.70
2022-08-26T03:13:28.256Z,6.90
2022-08-26T03:14:30.210Z,6.55
2022-08-26T03:15:32.457Z,5.90
2022-08-26T03:16:36.535Z,6.22
2022-08-26T03:17:38.898Z,6.82
2022-08-26T03:18:41.440Z,6.78
2022-08-26T03:19:43.248Z,6.18
2022-08-26T03:20:46.515Z,5.82
2022-08-26T03:21:48.384Z,7.43
2022-08-26T03:22:53.268Z,6.05
2022-08-26T03:23:58.638Z,6.55
2022-08-26T03:25:00.424Z,6.05
2022-08-26T03:26:02.611Z,6.15
2022-08-26T03:27:05.909Z,7.00
2022-08-26T03:28:09.626Z,5.88
2022-08-26T03:29:30.149Z,6.00
2022-08-26T03:30:44.965Z,6.80
2022-08-26T03:31:47.328Z,6.10
2022-08-26T03:32:49.420Z,5.78
2022-08-26T03:33:51.895Z,6.22
2022-08-26T03:34:54.307Z,5.82
2022-08-26T03:35:55.933Z,6.53
2022-08-26T03:36:58.614Z,5.70
2022-08-26T03:38:01.030Z,5.72
2022-08-26T03:39:05.901Z,5.75
2022-08-26T03:40:10.561Z,5.60
2022-08-26T03:41:12.329Z,5.85
2022-08-26T03:42:14.993Z,5.65
2022-08-26T03:43:18.928Z,5.88
2022-08-26T03:44:20.529Z,6.45
2022-08-26T03:45:22.301Z,5.60
2022-08-26T03:46:23.932Z,6.38
2022-08-26T03:47:28.509Z,6.53
2022-08-26T03:48:30.084Z,5.38
2022-08-26T03:49:32.292Z,5.93
2022-08-26T03:50:35.868Z,5.82
2022-08-26T03:51:38.943Z,5.35
2022-08-26T03:52:43.858Z,6.10
2022-08-26T03:53:47.685Z,6.40
2022-08-26T03:54:49.998Z,6.18
2022-08-26T03:55:51.898Z,5.68
2022-08-26T03:56:53.969Z,6.20
2022-08-26T03:57:55.875Z,6.25
2022-08-26T03:58:57.536Z,5.72
2022-08-26T03:59:59.287Z,6.65
2022-08-26T04:01:00.933Z,6.10
2022-08-26T04:02:02.679Z,6.00
2022-08-26T04:03:04.557Z,6.72
2022-08-26T04:04:06.509Z,6.55
2022-08-26T04:05:08.872Z,6.53
2022-08-26T04:06:10.712Z,6.55
2022-08-26T04:07:12.499Z,6.80
2022-08-26T04:08:14.047Z,6.13
2022-08-26T04:09:20.245Z,6.30
2022-08-26T04:10:29.309Z,5.93
2022-08-26T04:11:34.362Z,7.22
2022-08-26T04:12:38.392Z,6.22
2022-08-26T04:13:40.014Z,6.20
2022-08-26T04:14:42.552Z,6.30
2022-08-26T04:15:44.168Z,6.35
2022-08-26T04:16:46.502Z,6.25
2022-08-26T04:17:48.662Z,6.60
2022-08-26T04:18:50.447Z,5.20
2022-08-26T04:19:54.804Z,5.90
2022-08-26T04:20:56.463Z,6.38
2022-08-26T04:21:59.153Z,7.15
2022-08-26T04:23:02.576Z,5.93
2022-08-26T04:24:06.938Z,6.80
2022-08-26T04:25:10.904Z,6.80
2022-08-26T04:26:12.545Z,5.57
2022-08-26T04:27:14.347Z,6.28
2022-08-26T04:28:15.989Z,6.07
2022-08-26T04:29:24.559Z,6.35
2022-08-26T04:30:26.198Z,6.55
2022-08-26T04:31:27.909Z,5.80
2022-08-26T04:32:32.576Z,5.97
2022-08-26T04:33:34.197Z,6.03
2022-08-26T04:34:43.808Z,6.35
2022-08-26T04:35:46.591Z,5.43
2022-08-26T04:36:50.281Z,6.60
2022-08-26T04:37:51.856Z,5.30
2022-08-26T04:38:53.521Z,5.70
2022-08-26T04:39:55.472Z,5.13
2022-08-26T04:40:57.674Z,6.35
2022-08-26T04:41:59.952Z,6.68
2022-08-26T04:43:05.379Z,6.20
2022-08-26T04:44:07.801Z,5.90
2022-08-26T04:45:11.610Z,7.22
2022-08-26T04:46:17.909Z,7.78
2022-08-26T04:47:21.304Z,6.70
2022-08-26T04:48:22.993Z,7.38
2022-08-26T04:49:26.036Z,7.10
2022-08-26T04:50:29.265Z,7.35
2022-08-26T04:51:30.875Z,7.97
2022-08-26T04:52:32.588Z,8.05
2022-08-26T04:53:34.171Z,8.50
2022-08-26T04:54:36.115Z,8.10
2022-08-26T04:55:39.632Z,8.50
2022-08-26T04:56:44.332Z,8.80
2022-08-26T04:57:46.307Z,8.45
2022-08-26T04:58:49.398Z,7.72
2022-08-26T04:59:51.193Z,7.45
2022-08-26T05:00:55.220Z,8.02
2022-08-26T05:01:59.473Z,7.07
2022-08-26T05:03:01.351Z,7.18
2022-08-26T05:04:03.606Z,7.55
2022-08-26T05:05:10.134Z,6.40
2022-08-26T05:06:12.282Z,7.10
2022-08-26T05:07:13.873Z,6.53
2022-08-26T05:08:21.585Z,6.32
2022-08-26T05:09:23.552Z,5.95
2022-08-26T05:10:27.249Z,6.75
2022-08-26T05:11:29.748Z,6.80
2022-08-26T05:12:31.454Z,6.25
2022-08-26T05:13:35.357Z,5.55
2022-08-26T05:14:36.977Z,5.75
2022-08-26T05:15:39.165Z,6.43
2022-08-26T05:16:40.986Z,6.05
2022-08-26T05:17:43.137Z,6.22
2022-08-26T05:18:46.333Z,5.75
2022-08-26T05:19:48.617Z,6.07
2022-08-26T05:20:54.739Z,6.60
2022-08-26T05:21:56.630Z,6.50
2022-08-26T05:23:01.523Z,6.50
2022-08-26T05:24:04.657Z,7.20
2022-08-26T05:25:06.758Z,6.80
2022-08-26T05:26:09.091Z,6.85
2022-08-26T05:27:11.856Z,5.82
2022-08-26T05:28:16.056Z,6.57
2022-08-26T05:29:17.645Z,6.63
2022-08-26T05:30:19.902Z,6.38
2022-08-26T05:31:24.920Z,7.03
2022-08-26T05:32:27.528Z,6.93
2022-08-26T05:33:30.762Z,7.43
2022-08-26T05:34:32.805Z,6.85
2022-08-26T05:35:34.992Z,6.72
2022-08-26T05:36:37.121Z,6.80
2022-08-26T05:37:39.444Z,6.93
2022-08-26T05:38:41.919Z,6.32
2022-08-26T05:39:51.189Z,6.72
2022-08-26T05:40:53.236Z,5.72
2022-08-26T05:41:54.867Z,5.25
2022-08-26T05:42:56.454Z,6.60
2022-08-26T05:44:00.121Z,6.43
2022-08-26T05:45:01.959Z,6.75
2022-08-26T05:46:07.148Z,5.90
2022-08-26T05:47:08.819Z,6.47
2022-08-26T05:48:11.234Z,6.10
2022-08-26T05:49:15.908Z,5.50
2022-08-26T05:50:21.902Z,5.90
2022-08-26T05:51:26.190Z,6.35
2022-08-26T05:52:27.936Z,6.38
2022-08-26T05:53:29.873Z,7.00
2022-08-26T05:54:33.942Z,6.72
2022-08-26T05:55:41.621Z,6.68
2022-08-26T05:56:43.188Z,6.28
2022-08-26T05:57:45.452Z,6.72
2022-08-26T05:58:47.115Z,6.70
2022-08-26T05:59:48.753Z,6.60
2022-08-26T06:01:01.941Z,6.43
2022-08-26T06:02:05.412Z,6.22
2022-08-26T06:03:08.429Z,7.03
2022-08-26T06:04:10.982Z,5.57
2022-08-26T06:05:12.578Z,5.93
2022-08-26T06:06:20.029Z,6.68
2022-08-26T06:07:42.416Z,6.70
2022-08-26T06:08:45.214Z,6.70
2022-08-26T06:09:46.774Z,7.53
2022-08-26T06:10:55.185Z,6.47
2022-08-26T06:11:58.780Z,6.88
2022-08-26T06:13:09.141Z,7.35
2022-08-26T06:14:11.158Z,6.85
2022-08-26T06:15:12.805Z,7.55
2022-08-26T06:16:19.565Z,6.72
2022-08-26T06:17:22.005Z,6.93
2022-08-26T06:18:32.794Z,7.72
2022-08-26T06:19:34.575Z,6.50
2022-08-26T06:20:36.903Z,6.60
2022-08-26T06:21:41.215Z,7.03
2022-08-26T06:23:00.996Z,6.25
2022-08-26T06:24:26.987Z,6.57
2022-08-26T06:25:40.777Z,7.70
2022-08-26T06:26:46.933Z,6.70
2022-08-26T06:27:52.257Z,7.07
2022-08-26T06:28:54.098Z,6.95
2022-08-26T06:29:55.746Z,7.30
2022-08-26T06:30:57.367Z,7.97
2022-08-26T06:32:00.745Z,7.10
2022-08-26T06:33:02.375Z,7.80
2022-08-26T06:34:10.516Z,8.13
2022-08-26T06:35:12.921Z,7.72
2022-08-26T06:36:21.372Z,7.38
2022-08-26T06:37:22.947Z,7.53
2022-08-26T06:38:25.445Z,7.60
2022-08-26T06:39:28.185Z,9.02
2022-08-26T06:40:32.994Z,7.30
2022-08-26T06:41:35.043Z,7.88
2022-08-26T06:42:38.217Z,8.15
2022-08-26T06:43:40.782Z,7.72
2022-08-26T06:44:44.723Z,7.10
2022-08-26T06:45:47.020Z,7.50
2022-08-26T06:46:50.463Z,6.70
2022-08-26T06:47:52.908Z,6.80
2022-08-26T06:48:57.357Z,6.25
2022-08-26T06:49:59.016Z,5.85
2022-08-26T06:51:14.035Z,5.80
2022-08-26T06:52:17.236Z,6.05
2022-08-26T06:53:22.827Z,5.68
2022-08-26T06:54:24.838Z,6.30
2022-08-26T06:55:27.872Z,5.60
2022-08-26T06:56:34.763Z,5.18
2022-08-26T06:57:37.687Z,5.35
2022-08-26T06:58:42.404Z,7.00
2022-08-26T06:59:44.049Z,5.60
2022-08-26T07:00:47.453Z,6.40
2022-08-26T07:01:50.010Z,5.20
2022-08-26T07:02:51.862Z,5.97
2022-08-26T07:03:57.065Z,6.00
2022-08-26T07:04:58.761Z,6.25
2022-08-26T07:06:04.307Z,5.85
2022-08-26T07:07:06.930Z,6.07
2022-08-26T07:08:11.299Z,5.75
2022-08-26T07:09:12.931Z,5.20
2022-08-26T07:10:15.815Z,5.70
2022-08-26T07:11:19.775Z,6.00
2022-08-26T07:12:21.671Z,4.97
2022-08-26T07:13:30.745Z,5.97
2022-08-26T07:14:34.595Z,5.45
2022-08-26T07:15:40.625Z,5.05
2022-08-26T07:16:42.334Z,5.65
2022-08-26T07:17:44.016Z,5.35
2022-08-26T07:18:46.530Z,5.13
2022-08-26T07:19:48.974Z,6.15
2022-08-26T07:20:50.847Z,5.20
2022-08-26T07:21:52.441Z,5.65
2022-08-26T07:22:58.957Z,5.40
2022-08-26T07:24:01.613Z,5.97
2022-08-26T07:25:07.550Z,5.93
2022-08-26T07:26:11.824Z,5.80
2022-08-26T07:27:15.918Z,5.65
2022-08-26T07:28:18.777Z,5.28
2022-08-26T07:29:20.368Z,5.75
2022-08-26T07:30:26.430Z,5.40
2022-08-26T07:31:33.580Z,6.32
2022-08-26T07:32:38.996Z,5.60
2022-08-26T07:33:41.956Z,5.53
2022-08-26T07:34:43.966Z,4.75
2022-08-26T07:35:45.608Z,5.53
2022-08-26T07:36:47.488Z,5.85
2022-08-26T07:37:52.823Z,5.10
2022-08-26T07:38:58.558Z,5.00
2022-08-26T07:40:01.809Z,5.40
2022-08-26T07:41:04.629Z,5.60
2022-08-26T07:42:08.164Z,5.90
2022-08-26T07:43:10.383Z,4.90
2022-08-26T07:44:12.291Z,5.22
2022-08-26T07:45:14.083Z,5.30
2022-08-26T07:46:20.744Z,4.90
2022-08-26T07:47:29.109Z,5.03
2022-08-26T07:48:31.332Z,5.53
2022-08-26T07:49:36.086Z,4.57
2022-08-26T07:50:50.212Z,4.65
2022-08-26T07:51:54.519Z,5.03
2022-08-26T07:52:56.612Z,5.68
2022-08-26T07:53:58.654Z,5.53
2022-08-26T07:55:01.849Z,5.18
2022-08-26T07:56:05.009Z,5.03
2022-08-26T07:57:08.426Z,5.00
2022-08-26T07:58:11.081Z,4.72
2022-08-26T07:59:13.520Z,5.32
2022-08-26T08:00:17.168Z,5.30
2022-08-26T08:01:24.199Z,4.13
2022-08-26T08:02:26.914Z,4.80
2022-08-26T08:03:28.539Z,5.68
2022-08-26T08:04:31.900Z,5.28
2022-08-26T08:05:34.797Z,5.13
2022-08-26T08:06:37.458Z,4.90
2022-08-26T08:07:45.222Z,4.53
2022-08-26T08:08:48.037Z,5.40
2022-08-26T08:09:52.566Z,4.95
2022-08-26T08:10:54.399Z,5.57
2022-08-26T08:11:56.010Z,5.75
2022-08-26T08:12:58.653Z,5.30
2022-08-26T08:14:01.606Z,5.43
2022-08-26T08:15:04.039Z,5.93
2022-08-26T08:16:07.793Z,4.72
2022-08-26T08:17:15.118Z,5.15
2022-08-26T08:18:17.372Z,5.07
2022-08-26T08:19:19.055Z,5.45
2022-08-26T08:20:22.100Z,4.85
2022-08-26T08:21:25.468Z,5.07
2022-08-26T08:22:27.282Z,4.68
2022-08-26T08:23:30.545Z,5.97
2022-08-26T08:24:35.764Z,5.32
2022-08-26T08:25:37.353Z,4.63
2022-08-26T08:26:39.461Z,4.55
2022-08-26T08:27:45.070Z,4.95
2022-08-26T08:28:47.784Z,4.85
2022-08-26T08:29:50.115Z,5.03
2022-08-26T08:30:51.717Z,4.93
2022-08-26T08:31:56.887Z,8.30
2022-08-26T08:33:00.169Z,5.38
2022-08-26T08:34:02.056Z,4.32
2022-08-26T08:35:10.930Z,4.60
2022-08-26T08:36:18.582Z,5.43
2022-08-26T08:37:23.140Z,4.75
2022-08-26T08:38:25.798Z,4.13
2022-08-26T08:39:28.023Z,4.32
2022-08-26T08:40:29.694Z,5.05
2022-08-26T08:41:40.335Z,4.40
2022-08-26T08:43:06.456Z,5.13
2022-08-26T08:44:20.463Z,5.03
2022-08-26T08:45:42.362Z,4.07
2022-08-26T08:46:46.308Z,4.60
2022-08-26T08:47:54.630Z,4.97
2022-08-26T08:48:59.853Z,4.68
2022-08-26T08:50:13.047Z,4.18
2022-08-26T08:51:41.745Z,4.30
2022-08-26T08:53:00.592Z,4.30
2022-08-26T08:54:02.861Z,4.00
2022-08-26T08:55:11.001Z,4.28
2022-08-26T08:56:35.221Z,4.75
2022-08-26T08:58:02.125Z,4.85
2022-08-26T08:59:20.297Z,4.63
2022-08-26T09:00:30.124Z,4.25
2022-08-26T09:01:44.258Z,4.97
2022-08-26T09:03:18.278Z,4.38
2022-08-26T09:04:58.022Z,4.45
2022-08-26T09:06:01.740Z,4.35
2022-08-26T09:07:06.654Z,4.22
2022-08-26T09:08:19.872Z,3.90
2022-08-26T09:09:29.391Z,4.10
2022-08-26T09:10:31.527Z,4.38
2022-08-26T09:11:41.475Z,3.83
2022-08-26T09:12:43.609Z,3.90
2022-08-26T09:13:51.576Z,4.05
2022-08-26T09:14:59.325Z,4.43
2022-08-26T09:16:11.763Z,3.85
2022-08-26T09:17:44.345Z,4.05
2022-08-26T09:19:05.206Z,3.85
2022-08-26T09:20:20.607Z,4.47
2022-08-26T09:21:25.129Z,4.45
2022-08-26T09:22:36.504Z,4.20
2022-08-26T09:23:41.868Z,4.47
2022-08-26T09:24:48.428Z,4.65
2022-08-26T09:26:01.119Z,4.10
2022-08-26T09:27:02.992Z,4.38
2022-08-26T09:28:13.712Z,4.05
2022-08-26T09:29:18.328Z,4.57
2022-08-26T09:30:33.241Z,5.03
2022-08-26T09:31:37.320Z,4.50
2022-08-26T09:32:40.509Z,4.43
2022-08-26T09:33:42.466Z,3.92
2022-08-26T09:35:07.809Z,3.97
2022-08-26T09:36:41.252Z,4.40
2022-08-26T09:38:54.405Z,4.13
2022-08-26T09:40:22.947Z,4.55
2022-08-26T09:41:33.906Z,4.13
2022-08-26T09:42:35.799Z,4.18
2022-08-26T09:43:37.631Z,4.18
2022-08-26T09:44:56.739Z,4.25
2022-08-26T09:46:18.092Z,4.53
2022-08-26T09:47:32.968Z,5.18
2022-08-26T09:48:40.694Z,4.60
2022-08-26T09:49:44.630Z,4.60
2022-08-26T09:50:58.632Z,5.22
2022-08-26T09:52:10.766Z,5.45
2022-08-26T09:53:12.864Z,4.65
2022-08-26T09:54:30.186Z,4.95
2022-08-26T09:55:34.765Z,4.70
2022-08-26T09:56:38.734Z,5.30
2022-08-26T09:57:54.050Z,4.93
2022-08-26T09:58:57.003Z,4.53
2022-08-26T10:00:01.189Z,4.43
2022-08-26T10:01:08.504Z,5.60
2022-08-26T10:02:39.475Z,4.90
2022-08-26T10:03:41.816Z,5.63
2022-08-26T10:04:56.452Z,4.45
2022-08-26T10:06:01.765Z,4.57
2022-08-26T10:07:06.086Z,5.60
2022-08-26T10:08:31.045Z,5.45
2022-08-26T10:09:43.404Z,4.97
2022-08-26T10:10:45.798Z,5.40
2022-08-26T10:11:53.473Z,5.50
2022-08-26T10:13:07.907Z,5.88
2022-08-26T10:14:25.187Z,5.43
2022-08-26T10:15:28.088Z,4.93
2022-08-26T10:16:47.047Z,5.18
2022-08-26T10:17:51.624Z,5.57
2022-08-26T10:19:13.465Z,5.68
2022-08-26T10:20:25.888Z,5.93
2022-08-26T10:21:35.867Z,5.38
2022-08-26T10:22:51.865Z,5.65
2022-08-26T10:23:56.624Z,5.75
2022-08-26T10:25:03.911Z,6.03
2022-08-26T10:26:11.729Z,6.15
2022-08-26T10:27:34.862Z,6.32
2022-08-26T10:28:52.838Z,6.85
2022-08-26T10:30:00.392Z,7.03
2022-08-26T10:31:11.480Z,8.05
2022-08-26T10:32:35.125Z,7.93
2022-08-26T10:33:39.444Z,6.10
2022-08-26T10:34:42.367Z,6.50
2022-08-26T10:35:56.377Z,6.65
2022-08-26T10:37:13.874Z,6.43
2022-08-26T10:38:23.203Z,6.25
2022-08-26T10:39:43.830Z,6.72
2022-08-26T10:41:00.609Z,6.50
2022-08-26T10:42:13.916Z,7.32
2022-08-26T10:43:18.342Z,6.70
2022-08-26T10:44:21.642Z,7.80
2022-08-26T10:45:27.357Z,7.60
2022-08-26T10:46:44.328Z,6.75
2022-08-26T10:48:00.127Z,6.78
2022-08-26T10:49:17.363Z,7.00
2022-08-26T10:50:19.884Z,7.55
2022-08-26T10:51:32.076Z,6.88
2022-08-26T10:53:13.728Z,6.50
2022-08-26T10:54:31.209Z,7.43
2022-08-26T10:55:39.505Z,6.97
2022-08-26T10:57:14.166Z,7.15
2022-08-26T10:58:27.579Z,6.60
2022-08-26T10:59:58.733Z,6.45
2022-08-26T11:01:28.472Z,6.57
2022-08-26T11:02:40.611Z,6.25
2022-08-26T11:03:55.196Z,6.75
2022-08-26T11:05:06.892Z,6.38
2022-08-26T11:06:23.875Z,6.35
2022-08-26T11:07:46.279Z,5.70
2022-08-26T11:08:48.158Z,5.57
2022-08-26T11:09:50.074Z,6.32
2022-08-26T11:10:51.747Z,5.40
2022-08-26T11:11:53.359Z,5.65
2022-08-26T11:13:06.994Z,5.60
2022-08-26T11:14:08.744Z,5.50
2022-08-26T11:15:13.336Z,5.78
2022-08-26T11:16:35.994Z,6.00
2022-08-26T11:17:44.716Z,5.78
2022-08-26T11:18:48.730Z,4.93
2022-08-26T11:20:01.582Z,5.55
2022-08-26T11:21:44.546Z,5.68
2022-08-26T11:22:47.979Z,5.10
2022-08-26T11:23:50.340Z,5.93
2022-08-26T11:24:52.508Z,5.88
2022-08-26T11:26:09.828Z,6.32
2022-08-26T11:27:37.661Z,6.18
2022-08-26T11:28:48.788Z,5.47
2022-08-26T11:29:59.837Z,6.35
2022-08-26T11:31:02.079Z,5.93
2022-08-26T11:32:06.230Z,5.75
2022-08-26T11:33:51.349Z,5.80
2022-08-26T11:34:59.274Z,5.53
2022-08-26T11:36:12.026Z,5.78
2022-08-26T11:37:17.610Z,6.25
2022-08-26T11:38:27.438Z,6.38
2022-08-26T11:39:31.044Z,6.28
2022-08-26T11:40:42.023Z,6.38
2022-08-26T11:41:47.103Z,6.00
2022-08-26T11:42:55.709Z,6.25
2022-08-26T11:43:59.457Z,6.80
2022-08-26T11:45:17.192Z,5.95
2022-08-26T11:46:37.483Z,6.18
2022-08-26T11:47:39.157Z,6.85
2022-08-26T11:48:43.336Z,7.35
2022-08-26T11:49:45.162Z,7.72
2022-08-26T11:51:11.722Z,7.40
2022-08-26T11:52:22.128Z,7.38
2022-08-26T11:53:25.677Z,7.15
2022-08-26T11:54:35.104Z,7.95
2022-08-26T11:55:43.403Z,7.95
2022-08-26T11:56:48.778Z,7.90
2022-08-26T11:57:54.492Z,8.80
2022-08-26T11:58:58.061Z,8.00
2022-08-26T12:00:01.318Z,8.38
2022-08-26T12:01:09.625Z,7.88
2022-08-26T12:02:17.793Z,7.93
2022-08-26T12:03:23.903Z,8.10
2022-08-26T12:04:30.290Z,8.35
2022-08-26T12:05:42.175Z,8.65
2022-08-26T12:06:51.045Z,8.35
2022-08-26T12:07:54.395Z,8.88
2022-08-26T12:09:00.006Z,9.05
2022-08-26T12:10:04.666Z,9.05
2022-08-26T12:11:10.298Z,9.60
2022-08-26T12:12:13.533Z,9.27
2022-08-26T12:13:26.478Z,8.63
2022-08-26T12:14:28.693Z,8.38
2022-08-26T12:15:32.134Z,8.57
2022-08-26T12:16:37.657Z,8.23
2022-08-26T12:17:41.950Z,8.63
2022-08-26T12:18:44.819Z,8.65
2022-08-26T12:19:46.573Z,7.80
2022-08-26T12:20:48.847Z,7.82
2022-08-26T12:21:50.816Z,8.65
2022-08-26T12:22:53.139Z,8.43
2022-08-26T12:24:00.536Z,9.10
2022-08-26T12:25:06.461Z,8.88
2022-08-26T12:26:20.755Z,8.43
2022-08-26T12:27:24.045Z,8.27
2022-08-26T12:28:25.696Z,8.93
2022-08-26T12:29:31.231Z,8.20
2022-08-26T12:30:32.989Z,8.00
2022-08-26T12:31:38.513Z,8.52
2022-08-26T12:32:57.848Z,7.80
2022-08-26T12:34:02.531Z,7.85
2022-08-26T12:36:12.045Z,8.20
2022-08-26T12:37:15.430Z,8.43
2022-08-26T12:38:17.433Z,8.43
2022-08-26T12:39:29.726Z,8.13
2022-08-26T12:40:31.357Z,7.57
2022-08-26T12:41:47.885Z,8.02
2022-08-26T12:42:50.075Z,7.13
2022-08-26T12:43:51.699Z,7.80
2022-08-26T12:45:06.562Z,7.00
2022-08-26T12:46:12.617Z,7.80
2022-08-26T12:47:43.382Z,7.50
2022-08-26T12:48:49.057Z,7.45
2022-08-26T12:50:01.151Z,7.65
2022-08-26T12:51:03.698Z,7.90
2022-08-26T12:52:09.732Z,6.95
2022-08-26T12:53:11.242Z,6.47
2022-08-26T12:54:14.470Z,7.25
2022-08-26T12:55:32.992Z,6.80
2022-08-26T12:56:41.099Z,6.30
2022-08-26T12:57:42.697Z,6.97
2022-08-26T12:58:44.493Z,6.85
2022-08-26T12:59:46.204Z,6.60
2022-08-26T13:00:54.078Z,6.05
2022-08-26T13:01:55.798Z,6.15
2022-08-26T13:03:01.993Z,6.80
2022-08-26T13:04:06.320Z,5.93
2022-08-26T13:05:08.072Z,6.18
2022-08-26T13:06:31.455Z,6.95
2022-08-26T13:07:33.224Z,6.13
2022-08-26T13:08:35.684Z,6.38
2022-08-26T13:09:37.339Z,6.38
2022-08-26T13:10:43.451Z,6.43
2022-08-26T13:11:45.286Z,6.55
2022-08-26T13:12:47.693Z,5.60
2022-08-26T13:14:12.491Z,6.10
2022-08-26T13:15:22.864Z,6.20
2022-08-26T13:16:25.478Z,6.15
2022-08-26T13:17:29.344Z,5.82
2022-08-26T13:18:30.972Z,5.80
2022-08-26T13:19:32.994Z,5.45
2022-08-26T13:20:34.774Z,6.32
2022-08-26T13:21:41.720Z,5.78
2022-08-26T13:22:43.319Z,6.32
2022-08-26T13:23:46.357Z,6.05
2022-08-26T13:24:48.052Z,6.15
2022-08-26T13:25:50.466Z,6.32
2022-08-26T13:26:52.097Z,6.45
2022-08-26T13:27:54.062Z,5.60
2022-08-26T13:29:01.513Z,5.40
2022-08-26T13:30:04.552Z,6.43
2022-08-26T13:31:06.426Z,5.70
2022-08-26T13:32:09.109Z,5.28
2022-08-26T13:33:12.280Z,6.15
2022-08-26T13:34:19.463Z,5.75
2022-08-26T13:35:21.121Z,5.80
2022-08-26T13:36:22.736Z,5.82
2022-08-26T13:37:34.728Z,5.75
2022-08-26T13:38:37.349Z,6.18
2022-08-26T13:39:39.473Z,5.38
2022-08-26T13:40:44.451Z,5.25
2022-08-26T13:41:46.403Z,5.47
2022-08-26T13:42:50.002Z,5.55
2022-08-26T13:43:52.350Z,6.25
2022-08-26T13:44:57.959Z,5.45
2022-08-26T13:46:01.510Z,5.68
2022-08-26T13:47:03.121Z,5.95
2022-08-26T13:48:08.413Z,5.55
2022-08-26T13:49:10.699Z,6.15
2022-08-26T13:50:12.359Z,5.55
2022-08-26T13:51:14.009Z,5.63
2022-08-26T13:52:16.533Z,5.90
2022-08-26T13:53:18.811Z,5.60
2022-08-26T13:54:20.467Z,6.30
2022-08-26T13:55:22.320Z,6.00
2022-08-26T13:56:27.327Z,5.10
2022-08-26T13:57:30.249Z,5.43
2022-08-26T13:58:32.052Z,4.85
2022-08-26T13:59:33.756Z,5.00
2022-08-26T14:00:37.410Z,4.70
2022-08-26T14:01:40.032Z,4.45
2022-08-26T14:02:41.660Z,4.22
2022-08-26T14:03:43.791Z,4.50
2022-08-26T14:04:45.528Z,5.30
2022-08-26T14:05:47.126Z,4.65
2022-08-26T14:06:48.724Z,5.13
2022-08-26T14:07:50.287Z,4.97
2022-08-26T14:08:51.985Z,4.03
2022-08-26T14:09:53.670Z,5.05
2022-08-26T14:10:55.237Z,4.30
2022-08-26T14:11:58.933Z,4.32
2022-08-26T14:13:01.617Z,4.30
2022-08-26T14:14:03.256Z,4.63
2022-08-26T14:15:05.429Z,4.53
2022-08-26T14:16:17.006Z,5.13
2022-08-26T14:17:21.982Z,5.40
2022-08-26T14:18:32.240Z,4.72
2022-08-26T14:19:33.939Z,4.90
2022-08-26T14:20:36.865Z,5.03
2022-08-26T14:21:39.619Z,4.45
2022-08-26T14:23:03.596Z,4.40
2022-08-26T14:24:06.468Z,4.90
2022-08-26T14:25:08.571Z,4.82
2022-08-26T14:26:11.715Z,4.68
2022-08-26T14:27:30.657Z,4.43
2022-08-26T14:28:32.291Z,4.50
2022-08-26T14:29:33.916Z,4.70
2022-08-26T14:30:39.476Z,4.70
2022-08-26T14:31:41.130Z,4.57
2022-08-26T14:32:46.021Z,5.10
2022-08-26T14:33:47.677Z,4.95
2022-08-26T14:34:49.566Z,4.47
2022-08-26T14:35:51.739Z,5.07
2022-08-26T14:36:53.288Z,4.45
2022-08-26T14:37:56.697Z,4.57
2022-08-26T14:39:05.833Z,4.78
2022-08-26T14:40:08.233Z,4.47
2022-08-26T14:41:10.444Z,4.68